Peshawar, Pakistan
Current Conditions -  °F | °C
As of 8:00 AM on Wednesday 22 Oct 2014 (Local Time) from OPPS Reporting Station
Haze Haze  
Wind Chill: 68°   Ceiling: Unl
Heat Index: 68°   Visibility: 2.5mi
Dew Point: 57°   Wind: 0mph
Humidity: 68%   Direction: NA
Pressure: NA   Gusts: NA
Location:  34.01°N, 71.54°E
Report Text: OPPS 220300Z 00000KT 4000 HZ SKC 20/14 Q1019.8
Loading
Personal Weather Stations






























Interactive Weather Map
Tropical Storm Tracking
New forecast layout! Learn more

10-Day Weather Forecast

Advertisements
Track Severe Weather on mobile